Time;durP1;ratioP1;P1;durP2;ratioP2;P2;SDS_P1;SDS_P2;PMS_P1;PMS_P2;Temp;Humidity;BMP_temperature;BMP_pressure;BME280_temperature;BME280_humidity;BME280_pressure;Samples;Min_cycle;Max_cycle;Signal;HPM_P1;HPM_P2
2024/04/13 00:01:11;;;;;;;47.95;17.33;;;;;;;;;;7345029;19;20297;-47
2024/04/13 00:03:37;;;;;;;43.70;15.63;;;;;;;;;;7321064;19;20340;-48
2024/04/13 00:06:02;;;;;;;35.90;15.30;;;;;;;;;;7344380;19;20385;-50
2024/04/13 00:08:28;;;;;;;41.90;16.10;;;;;;;;;;7319686;19;20701;-46
2024/04/13 00:10:53;;;;;;;41.78;16.08;;;;;;;;;;7343276;19;20295;-47
2024/04/13 00:13:19;;;;;;;42.90;15.17;;;;;;;;;;7320370;19;20313;-49
2024/04/13 00:15:53;;;;;;;37.20;15.00;;;;;;;;;;7342812;19;20305;-47
2024/04/13 00:18:19;;;;;;;42.17;15.77;;;;;;;;;;7321904;19;20300;-49
2024/04/13 00:20:44;;;;;;;34.20;14.57;;;;;;;;;;7343421;19;20328;-47
2024/04/13 00:23:09;;;;;;;39.90;13.83;;;;;;;;;;7343098;19;20863;-45
2024/04/13 00:25:35;;;;;;;32.13;14.20;;;;;;;;;;7323320;19;20285;-49
2024/04/13 00:28:00;;;;;;;34.40;14.00;;;;;;;;;;7344271;19;20321;-46
2024/04/13 00:30:25;;;;;;;33.80;13.05;;;;;;;;;;7321741;19;20316;-49
2024/04/13 00:32:51;;;;;;;34.90;13.00;;;;;;;;;;7343870;19;20318;-50
2024/04/13 00:35:16;;;;;;;36.20;14.82;;;;;;;;;;7330321;19;20346;-47
2024/04/13 00:37:41;;;;;;;38.47;13.90;;;;;;;;;;7339333;19;20639;-48
2024/04/13 00:40:07;;;;;;;34.97;12.63;;;;;;;;;;7343986;19;20301;-51
2024/04/13 00:42:32;;;;;;;32.20;12.60;;;;;;;;;;7322161;19;20320;-46
2024/04/13 00:45:04;;;;;;;31.13;12.80;;;;;;;;;;7344853;19;20301;-47
2024/04/13 00:47:35;;;;;;;29.10;12.40;;;;;;;;;;7321376;19;20331;-46
2024/04/13 00:50:02;;;;;;;32.22;12.50;;;;;;;;;;7343415;19;20308;-47
2024/04/13 00:52:29;;;;;;;27.83;11.63;;;;;;;;;;7320446;19;20331;-46
2024/04/13 00:54:55;;;;;;;27.65;12.10;;;;;;;;;;7342946;19;20297;-46
2024/04/13 00:57:21;;;;;;;29.95;12.18;;;;;;;;;;7320502;19;20320;-47
2024/04/13 00:59:49;;;;;;;30.20;11.13;;;;;;;;;;7342265;19;20312;-47
2024/04/13 01:02:18;;;;;;;33.10;11.50;;;;;;;;;;7343905;19;20328;-46
2024/04/13 01:04:45;;;;;;;31.52;11.20;;;;;;;;;;7319978;19;20300;-50
2024/04/13 01:07:10;;;;;;;29.03;11.67;;;;;;;;;;7344703;19;20324;-47
2024/04/13 01:09:36;;;;;;;26.70;11.53;;;;;;;;;;7320136;19;20366;-49
2024/04/13 01:12:05;;;;;;;26.67;10.52;;;;;;;;;;7343724;19;20669;-47
2024/04/13 01:14:31;;;;;;;30.87;11.17;;;;;;;;;;7320152;19;20336;-48
2024/04/13 01:16:56;;;;;;;25.77;10.40;;;;;;;;;;7343526;19;20301;-47
2024/04/13 01:19:22;;;;;;;26.23;10.75;;;;;;;;;;7311531;19;20345;-47
2024/04/13 01:21:47;;;;;;;26.13;10.00;;;;;;;;;;7342228;19;20670;-46
2024/04/13 01:24:13;;;;;;;27.83;10.33;;;;;;;;;;7340372;19;20741;-47
2024/04/13 01:26:38;;;;;;;21.57;9.30;;;;;;;;;;7319779;19;20324;-49
2024/04/13 01:29:07;;;;;;;23.37;10.53;;;;;;;;;;7341647;19;20324;-48
2024/04/13 01:31:33;;;;;;;23.48;9.70;;;;;;;;;;7320819;19;20332;-49
2024/04/13 01:33:58;;;;;;;18.52;9.02;;;;;;;;;;7343043;19;20320;-47
2024/04/13 01:36:26;;;;;;;23.87;9.80;;;;;;;;;;7318206;19;20436;-49
2024/04/13 01:38:52;;;;;;;22.50;9.15;;;;;;;;;;7342059;19;20329;-47
2024/04/13 01:41:17;;;;;;;19.85;9.23;;;;;;;;;;7320315;19;20321;-47
2024/04/13 01:43:43;;;;;;;22.48;9.10;;;;;;;;;;7342993;19;20310;-50
2024/04/13 01:46:08;;;;;;;17.57;8.40;;;;;;;;;;7343872;19;20388;-48
2024/04/13 01:48:33;;;;;;;18.65;8.50;;;;;;;;;;7319891;19;20425;-47
2024/04/13 01:51:00;;;;;;;21.97;8.80;;;;;;;;;;7342556;19;20665;-47
2024/04/13 01:53:26;;;;;;;20.10;8.75;;;;;;;;;;7317078;19;20331;-47
2024/04/13 01:55:51;;;;;;;19.63;8.70;;;;;;;;;;7340632;19;20313;-47
2024/04/13 01:58:17;;;;;;;17.35;8.45;;;;;;;;;;7321832;19;20300;-49
2024/04/13 02:00:43;;;;;;;24.47;8.77;;;;;;;;;;7341255;19;20297;-48
2024/04/13 02:03:08;;;;;;;19.63;8.20;;;;;;;;;;7341208;19;20305;-46
2024/04/13 02:05:34;;;;;;;18.93;8.10;;;;;;;;;;7319040;19;20315;-46
2024/04/13 02:08:01;;;;;;;21.67;8.40;;;;;;;;;;7341060;19;20301;-47
2024/04/13 02:10:26;;;;;;;19.90;7.60;;;;;;;;;;7324974;19;21029;-48
2024/04/13 02:12:52;;;;;;;20.03;8.20;;;;;;;;;;7347685;19;20309;-46
2024/04/13 02:15:17;;;;;;;13.63;7.40;;;;;;;;;;7324171;19;20317;-46
2024/04/13 02:17:43;;;;;;;14.47;7.63;;;;;;;;;;7346619;19;20292;-47
2024/04/13 02:20:14;;;;;;;15.93;7.27;;;;;;;;;;7347652;19;20381;-47
2024/04/13 02:22:40;;;;;;;22.75;7.50;;;;;;;;;;7325084;19;20301;-47
2024/04/13 02:25:08;;;;;;;18.45;7.30;;;;;;;;;;7348256;19;20670;-49
2024/04/13 02:27:34;;;;;;;14.98;7.90;;;;;;;;;;7324587;19;20301;-49
2024/04/13 02:29:59;;;;;;;18.67;7.30;;;;;;;;;;7346952;19;20316;-49
2024/04/13 02:32:25;;;;;;;16.40;7.00;;;;;;;;;;7324484;19;20304;-51
2024/04/13 02:34:50;;;;;;;15.73;7.10;;;;;;;;;;7345808;19;20666;-51
2024/04/13 02:37:16;;;;;;;15.20;7.20;;;;;;;;;;7340986;19;21220;-44
2024/04/13 02:39:41;;;;;;;20.87;7.10;;;;;;;;;;7334400;19;20300;-49
2024/04/13 02:42:06;;;;;;;15.73;7.43;;;;;;;;;;7345941;19;20311;-46
2024/04/13 02:44:32;;;;;;;18.87;8.00;;;;;;;;;;7325609;19;20312;-48
2024/04/13 02:46:57;;;;;;;18.67;7.70;;;;;;;;;;7346771;19;20316;-46
2024/04/13 02:49:23;;;;;;;18.20;7.50;;;;;;;;;;7323363;19;20699;-46
2024/04/13 02:51:48;;;;;;;15.33;7.40;;;;;;;;;;7343753;19;20305;-49
2024/04/13 02:54:13;;;;;;;16.87;7.27;;;;;;;;;;7345826;19;20421;-48
2024/04/13 02:56:39;;;;;;;18.53;7.20;;;;;;;;;;7324404;19;20320;-47
2024/04/13 02:59:04;;;;;;;15.45;7.25;;;;;;;;;;7345387;19;20320;-48
2024/04/13 03:01:30;;;;;;;18.37;7.37;;;;;;;;;;7324183;19;20364;-48
2024/04/13 03:03:55;;;;;;;14.75;7.80;;;;;;;;;;7345748;19;20722;-50
2024/04/13 03:06:21;;;;;;;15.43;6.90;;;;;;;;;;7323284;19;20301;-47
2024/04/13 03:08:50;;;;;;;13.87;7.00;;;;;;;;;;7345137;19;20840;-47
2024/04/13 03:11:17;;;;;;;13.95;6.70;;;;;;;;;;7345940;19;20292;-46
2024/04/13 03:13:43;;;;;;;15.68;7.50;;;;;;;;;;7326073;19;20293;-55
2024/04/13 03:16:09;;;;;;;16.47;7.30;;;;;;;;;;7345570;19;20309;-46
2024/04/13 03:18:38;;;;;;;15.00;7.50;;;;;;;;;;7321621;19;20895;-50
2024/04/13 03:21:04;;;;;;;15.73;7.00;;;;;;;;;;7345634;19;20396;-49
2024/04/13 03:23:30;;;;;;;15.02;6.88;;;;;;;;;;7323339;19;20904;-47
2024/04/13 03:25:56;;;;;;;23.13;7.50;;;;;;;;;;7345371;19;20301;-49
2024/04/13 03:28:25;;;;;;;15.67;6.67;;;;;;;;;;7322001;19;20411;-47
2024/04/13 03:30:51;;;;;;;15.98;7.10;;;;;;;;;;7344707;19;21199;-50
2024/04/13 03:33:16;;;;;;;15.87;7.13;;;;;;;;;;7337051;19;20304;-48
2024/04/13 03:35:41;;;;;;;16.67;7.10;;;;;;;;;;7335678;19;20859;-50
2024/04/13 03:38:07;;;;;;;13.60;6.80;;;;;;;;;;7344337;19;20888;-46
2024/04/13 03:40:34;;;;;;;15.60;7.10;;;;;;;;;;7322042;19;20388;-48
2024/04/13 03:43:00;;;;;;;14.50;7.03;;;;;;;;;;7345598;19;20370;-48
2024/04/13 03:45:25;;;;;;;13.60;7.10;;;;;;;;;;7322271;19;20916;-50
2024/04/13 03:47:50;;;;;;;15.02;6.82;;;;;;;;;;7343745;19;20401;-48
2024/04/13 03:50:16;;;;;;;15.70;7.10;;;;;;;;;;7338774;19;20689;-46
2024/04/13 03:52:42;;;;;;;14.38;7.40;;;;;;;;;;7329175;19;20384;-47
2024/04/13 03:55:07;;;;;;;14.55;6.45;;;;;;;;;;7344947;19;20301;-47
2024/04/13 03:57:33;;;;;;;13.43;6.53;;;;;;;;;;7321851;19;20293;-47
2024/04/13 03:59:58;;;;;;;22.63;7.10;;;;;;;;;;7344623;19;20304;-50
2024/04/13 04:02:24;;;;;;;13.38;7.10;;;;;;;;;;7321387;19;20329;-47
2024/04/13 04:04:49;;;;;;;12.98;6.50;;;;;;;;;;7344467;19;20304;-46
2024/04/13 04:07:15;;;;;;;15.57;7.10;;;;;;;;;;7344010;19;20387;-48
2024/04/13 04:09:40;;;;;;;14.13;6.57;;;;;;;;;;7321075;19;20293;-46
2024/04/13 04:12:05;;;;;;;11.87;6.53;;;;;;;;;;7344253;19;20387;-47
2024/04/13 04:14:31;;;;;;;16.00;7.20;;;;;;;;;;7321929;19;20317;-50
2024/04/13 04:16:56;;;;;;;17.23;6.67;;;;;;;;;;7344483;19;20341;-46
2024/04/13 04:19:22;;;;;;;13.00;6.40;;;;;;;;;;7319895;19;20313;-47
2024/04/13 04:21:48;;;;;;;11.93;6.40;;;;;;;;;;7343396;19;20332;-46
2024/04/13 04:24:14;;;;;;;12.93;6.55;;;;;;;;;;7340006;19;20308;-46
2024/04/13 04:26:39;;;;;;;13.93;6.53;;;;;;;;;;7321701;19;20889;-50
2024/04/13 04:29:05;;;;;;;10.93;6.50;;;;;;;;;;7343009;19;20321;-50
2024/04/13 04:31:30;;;;;;;14.07;7.00;;;;;;;;;;7318646;19;20765;-49
2024/04/13 04:33:55;;;;;;;14.00;6.30;;;;;;;;;;7344185;19;20292;-47
2024/04/13 04:36:21;;;;;;;11.10;6.33;;;;;;;;;;7320914;19;20760;-48
2024/04/13 04:38:49;;;;;;;12.35;6.80;;;;;;;;;;7341786;19;20458;-48
2024/04/13 04:41:15;;;;;;;15.07;6.35;;;;;;;;;;7343683;19;20297;-46
2024/04/13 04:43:40;;;;;;;16.87;6.60;;;;;;;;;;7322063;19;20292;-46
2024/04/13 04:46:09;;;;;;;13.83;6.00;;;;;;;;;;7342814;19;20861;-47
2024/04/13 04:48:34;;;;;;;11.90;6.28;;;;;;;;;;7319693;19;20323;-46
2024/04/13 04:51:01;;;;;;;14.97;6.30;;;;;;;;;;7342350;19;20848;-47
2024/04/13 04:53:27;;;;;;;11.63;6.13;;;;;;;;;;7317629;19;20703;-47
2024/04/13 04:55:52;;;;;;;15.10;6.65;;;;;;;;;;7343147;19;20293;-47
2024/04/13 04:58:18;;;;;;;13.20;6.13;;;;;;;;;;7320380;19;20315;-47
2024/04/13 05:00:43;;;;;;;13.25;6.80;;;;;;;;;;7342477;19;20297;-47
2024/04/13 05:03:09;;;;;;;15.00;6.90;;;;;;;;;;7342721;19;20311;-46
2024/04/13 05:05:34;;;;;;;12.80;6.47;;;;;;;;;;7320742;19;20645;-46
2024/04/13 05:08:00;;;;;;;14.00;6.80;;;;;;;;;;7341797;19;20318;-47
2024/04/13 05:10:25;;;;;;;11.27;6.60;;;;;;;;;;7319569;19;20300;-50
2024/04/13 05:12:50;;;;;;;13.23;6.20;;;;;;;;;;7342435;19;20352;-48
2024/04/13 05:15:16;;;;;;;12.37;6.80;;;;;;;;;;7337448;19;20856;-45
2024/04/13 05:17:41;;;;;;;12.80;6.93;;;;;;;;;;7327406;19;20384;-46
2024/04/13 05:20:07;;;;;;;11.57;6.33;;;;;;;;;;7343655;19;20341;-48
2024/04/13 05:22:33;;;;;;;11.90;6.30;;;;;;;;;;7319176;19;20810;-47
2024/04/13 05:24:59;;;;;;;12.15;6.40;;;;;;;;;;7342334;19;20299;-47
2024/04/13 05:27:24;;;;;;;11.77;6.10;;;;;;;;;;7319589;19;20313;-46
2024/04/13 05:29:53;;;;;;;12.50;5.65;;;;;;;;;;7338240;19;20380;-50
2024/04/13 05:32:19;;;;;;;14.00;6.90;;;;;;;;;;7319435;19;20301;-46
2024/04/13 05:34:44;;;;;;;9.50;5.50;;;;;;;;;;7340995;19;20305;-46
2024/04/13 05:37:10;;;;;;;11.10;5.60;;;;;;;;;;7341922;19;20350;-47
2024/04/13 05:39:35;;;;;;;12.70;5.90;;;;;;;;;;7318911;19;20854;-48
2024/04/13 05:42:00;;;;;;;9.57;5.30;;;;;;;;;;7342946;19;20666;-47
2024/04/13 05:44:26;;;;;;;11.47;6.17;;;;;;;;;;7326177;19;20328;-49
2024/04/13 05:46:51;;;;;;;11.00;6.10;;;;;;;;;;7348377;19;20324;-47
2024/04/13 05:49:17;;;;;;;10.93;6.20;;;;;;;;;;7334350;19;20441;-48
2024/04/13 05:51:42;;;;;;;10.07;5.50;;;;;;;;;;7339011;19;20319;-51
2024/04/13 05:54:08;;;;;;;11.13;6.30;;;;;;;;;;7348118;19;20301;-49
2024/04/13 05:56:33;;;;;;;11.15;5.43;;;;;;;;;;7326145;19;20297;-48
2024/04/13 05:58:58;;;;;;;10.83;5.30;;;;;;;;;;7348291;19;20337;-50
2024/04/13 06:01:25;;;;;;;8.25;5.47;;;;;;;;;;7322649;19;20376;-46
2024/04/13 06:03:51;;;;;;;11.60;5.85;;;;;;;;;;7347118;19;20844;-47
2024/04/13 06:06:16;;;;;;;11.77;6.00;;;;;;;;;;7340999;19;20329;-51
2024/04/13 06:08:42;;;;;;;10.80;5.40;;;;;;;;;;7335697;19;20297;-46
2024/04/13 06:11:07;;;;;;;8.80;5.17;;;;;;;;;;7347466;19;20313;-49
2024/04/13 06:13:33;;;;;;;10.00;5.30;;;;;;;;;;7327316;19;20316;-46
2024/04/13 06:16:02;;;;;;;10.75;6.10;;;;;;;;;;7347027;19;20336;-50
2024/04/13 06:18:27;;;;;;;10.68;5.50;;;;;;;;;;7324629;19;20319;-47
2024/04/13 06:20:52;;;;;;;10.60;5.30;;;;;;;;;;7346846;19;20912;-50
2024/04/13 06:23:18;;;;;;;9.97;5.17;;;;;;;;;;7325496;19;20301;-49
2024/04/13 06:25:49;;;;;;;10.40;4.97;;;;;;;;;;7346019;19;20295;-47
2024/04/13 06:28:15;;;;;;;9.57;5.60;;;;;;;;;;7346833;19;20304;-47
2024/04/13 06:30:42;;;;;;;13.13;6.00;;;;;;;;;;7325759;19;20325;-46
2024/04/13 06:33:10;;;;;;;10.15;5.10;;;;;;;;;;7347256;19;20692;-47
2024/04/13 06:35:35;;;;;;;8.60;5.15;;;;;;;;;;7324896;19;21190;-46
2024/04/13 06:38:03;;;;;;;7.05;4.38;;;;;;;;;;7346238;19;20323;-50
2024/04/13 06:40:29;;;;;;;10.95;4.63;;;;;;;;;;7324196;19;20332;-49
2024/04/13 06:42:54;;;;;;;8.80;4.67;;;;;;;;;;7346452;19;20297;-49
2024/04/13 06:45:20;;;;;;;9.93;4.53;;;;;;;;;;7324734;19;20646;-46
2024/04/13 06:47:45;;;;;;;11.00;5.40;;;;;;;;;;7345531;19;20323;-47
2024/04/13 06:50:11;;;;;;;10.67;4.83;;;;;;;;;;7345917;19;20321;-50
2024/04/13 06:52:36;;;;;;;7.40;4.40;;;;;;;;;;7322934;19;21611;-46
2024/04/13 06:55:01;;;;;;;9.13;5.10;;;;;;;;;;7343850;19;20303;-48
2024/04/13 06:57:27;;;;;;;8.23;4.50;;;;;;;;;;7323819;19;20303;-47
2024/04/13 06:59:52;;;;;;;12.35;4.10;;;;;;;;;;7345033;19;20300;-47
2024/04/13 07:02:17;;;;;;;9.80;4.90;;;;;;;;;;7326114;19;20305;-49
2024/04/13 07:04:43;;;;;;;10.43;4.50;;;;;;;;;;7345642;19;20327;-52
2024/04/13 07:07:08;;;;;;;8.50;3.70;;;;;;;;;;7346113;19;20864;-46
2024/04/13 07:09:34;;;;;;;11.13;4.75;;;;;;;;;;7322594;19;20317;-50
2024/04/13 07:11:59;;;;;;;8.90;4.50;;;;;;;;;;7345231;19;20952;-48
2024/04/13 07:14:25;;;;;;;8.00;4.35;;;;;;;;;;7323121;19;20332;-50
2024/04/13 07:16:51;;;;;;;11.50;4.50;;;;;;;;;;7345294;19;20300;-47
2024/04/13 07:19:17;;;;;;;9.87;3.80;;;;;;;;;;7344361;19;20329;-45
2024/04/13 07:21:43;;;;;;;9.98;4.28;;;;;;;;;;7341697;19;20296;-53
2024/04/13 07:24:08;;;;;;;9.75;4.60;;;;;;;;;;7346173;19;20301;-50
2024/04/13 07:26:34;;;;;;;11.27;4.60;;;;;;;;;;7323186;19;20433;-52
2024/04/13 07:28:59;;;;;;;7.93;4.68;;;;;;;;;;7344379;19;20332;-48
2024/04/13 07:31:25;;;;;;;9.03;4.57;;;;;;;;;;7323692;19;20380;-49
2024/04/13 07:33:50;;;;;;;8.10;4.20;;;;;;;;;;7344851;19;20304;-47
2024/04/13 07:36:16;;;;;;;11.70;5.00;;;;;;;;;;7344315;19;20380;-49
2024/04/13 07:38:41;;;;;;;9.43;4.00;;;;;;;;;;7323837;19;21166;-52
2024/04/13 07:41:07;;;;;;;11.35;3.58;;;;;;;;;;7344879;19;20316;-51
2024/04/13 07:43:32;;;;;;;8.07;4.27;;;;;;;;;;7322675;19;20320;-50
2024/04/13 07:45:57;;;;;;;9.37;4.43;;;;;;;;;;7344143;19;20320;-48
2024/04/13 07:48:23;;;;;;;11.10;4.47;;;;;;;;;;7321890;19;20338;-47
2024/04/13 07:50:48;;;;;;;8.93;4.13;;;;;;;;;;7344866;19;20318;-50
2024/04/13 07:53:14;;;;;;;8.90;4.00;;;;;;;;;;7342693;19;20808;-47
2024/04/13 07:55:39;;;;;;;10.63;4.00;;;;;;;;;;7321552;19;20297;-49
2024/04/13 07:58:04;;;;;;;7.57;3.75;;;;;;;;;;7343798;19;20327;-48
2024/04/13 08:00:30;;;;;;;10.13;4.37;;;;;;;;;;7320740;19;20301;-47
2024/04/13 08:02:55;;;;;;;9.55;4.00;;;;;;;;;;7344230;19;20364;-47
2024/04/13 08:05:20;;;;;;;10.57;4.40;;;;;;;;;;7321546;19;20388;-47
2024/04/13 08:07:46;;;;;;;24.20;10.53;;;;;;;;;;7342813;19;20396;-49
2024/04/13 08:10:11;;;;;;;23.23;10.03;;;;;;;;;;7344037;19;20304;-46
2024/04/13 08:12:38;;;;;;;15.60;6.53;;;;;;;;;;7320549;19;20373;-54
2024/04/13 08:15:07;;;;;;;36.28;16.33;;;;;;;;;;7342854;19;20315;-48
2024/04/13 08:17:32;;;;;;;20.05;8.38;;;;;;;;;;7321317;19;20678;-47
2024/04/13 08:19:57;;;;;;;20.13;9.30;;;;;;;;;;7343072;19;20296;-54
2024/04/13 08:22:23;;;;;;;22.20;8.53;;;;;;;;;;7320067;19;20892;-46
2024/04/13 08:24:49;;;;;;;15.40;7.10;;;;;;;;;;7343208;19;20374;-49
2024/04/13 08:27:14;;;;;;;19.83;8.68;;;;;;;;;;7343166;19;20367;-51
2024/04/13 08:29:40;;;;;;;11.50;5.30;;;;;;;;;;7320191;19;20297;-48
2024/04/13 08:32:05;;;;;;;15.93;6.80;;;;;;;;;;7342958;19;20317;-47
2024/04/13 08:34:31;;;;;;;15.10;6.10;;;;;;;;;;7321846;19;20415;-50
2024/04/13 08:36:56;;;;;;;16.63;7.83;;;;;;;;;;7342341;19;20360;-55
2024/04/13 08:39:21;;;;;;;18.35;8.43;;;;;;;;;;7318961;19;21035;-48
2024/04/13 08:41:47;;;;;;;12.73;4.87;;;;;;;;;;7342817;19;20304;-47
2024/04/13 08:44:12;;;;;;;26.13;8.70;;;;;;;;;;7343363;19;20300;-50
2024/04/13 08:46:38;;;;;;;15.05;4.45;;;;;;;;;;7321295;19;20652;-47
2024/04/13 08:49:05;;;;;;;13.98;5.93;;;;;;;;;;7340874;19;20331;-50
2024/04/13 08:51:33;;;;;;;25.30;9.02;;;;;;;;;;7316967;19;20328;-50
2024/04/13 08:53:59;;;;;;;20.13;7.60;;;;;;;;;;7343261;19;20339;-46
2024/04/13 08:56:25;;;;;;;14.80;5.30;;;;;;;;;;7320041;19;20328;-49
2024/04/13 08:58:51;;;;;;;18.53;7.90;;;;;;;;;;7340093;19;20428;-47
2024/04/13 09:01:20;;;;;;;15.82;6.53;;;;;;;;;;7333150;19;20335;-48
2024/04/13 09:03:46;;;;;;;21.05;7.90;;;;;;;;;;7345204;19;20297;-50
2024/04/13 09:06:12;;;;;;;16.57;6.30;;;;;;;;;;7342744;19;20304;-51
2024/04/13 09:08:39;;;;;;;20.80;9.95;;;;;;;;;;7321174;19;20290;-47
2024/04/13 09:11:08;;;;;;;11.55;5.15;;;;;;;;;;7342376;19;20828;-46
2024/04/13 09:13:34;;;;;;;9.32;4.13;;;;;;;;;;7319316;19;20409;-52
2024/04/13 09:16:00;;;;;;;12.05;4.60;;;;;;;;;;7341312;19;20300;-47
2024/04/13 09:18:25;;;;;;;10.48;3.42;;;;;;;;;;7324473;19;20296;-50
2024/04/13 09:20:51;;;;;;;12.17;4.20;;;;;;;;;;7349961;19;20324;-47
2024/04/13 09:23:17;;;;;;;7.20;3.30;;;;;;;;;;7339385;19;20321;-47
2024/04/13 09:25:43;;;;;;;9.60;3.95;;;;;;;;;;7343670;19;20770;-50
2024/04/13 09:28:08;;;;;;;9.07;3.27;;;;;;;;;;7346463;19;20316;-47
2024/04/13 09:30:34;;;;;;;9.03;3.70;;;;;;;;;;7327720;19;20343;-50
2024/04/13 09:33:03;;;;;;;10.23;3.80;;;;;;;;;;7347591;19;20333;-49
2024/04/13 09:35:28;;;;;;;7.83;3.40;;;;;;;;;;7326849;19;20296;-52
2024/04/13 09:37:59;;;;;;;7.83;3.27;;;;;;;;;;7346969;19;20329;-50
2024/04/13 09:40:26;;;;;;;8.90;3.90;;;;;;;;;;7325269;19;20319;-49
2024/04/13 09:42:51;;;;;;;10.10;3.50;;;;;;;;;;7347773;19;20293;-47
2024/04/13 09:45:18;;;;;;;10.68;3.50;;;;;;;;;;7344824;19;20293;-48
2024/04/13 09:47:45;;;;;;;7.40;3.53;;;;;;;;;;7346431;19;20379;-49
2024/04/13 09:50:11;;;;;;;8.52;3.47;;;;;;;;;;7346909;19;20296;-48
2024/04/13 09:52:37;;;;;;;6.53;3.53;;;;;;;;;;7323127;19;20302;-47
2024/04/13 09:55:02;;;;;;;10.18;3.50;;;;;;;;;;7347578;19;20312;-51
2024/04/13 09:57:28;;;;;;;8.70;3.33;;;;;;;;;;7326653;19;20308;-52
2024/04/13 09:59:54;;;;;;;6.87;3.40;;;;;;;;;;7346432;19;20299;-49
2024/04/13 10:02:19;;;;;;;7.65;3.00;;;;;;;;;;7324595;19;20364;-46
2024/04/13 10:04:45;;;;;;;7.95;3.13;;;;;;;;;;7346880;19;20300;-51
2024/04/13 10:07:11;;;;;;;9.80;3.42;;;;;;;;;;7347825;19;20659;-54
2024/04/13 10:09:39;;;;;;;7.93;3.30;;;;;;;;;;7325092;19;20286;-52
2024/04/13 10:12:06;;;;;;;7.03;3.20;;;;;;;;;;7348018;19;20340;-48
2024/04/13 10:14:32;;;;;;;12.00;3.50;;;;;;;;;;7325326;19;20742;-50
2024/04/13 10:17:01;;;;;;;7.75;3.28;;;;;;;;;;7347706;19;20313;-48
2024/04/13 10:19:27;;;;;;;8.57;3.70;;;;;;;;;;7323257;19;20344;-50
2024/04/13 10:21:56;;;;;;;9.45;3.17;;;;;;;;;;7347280;19;20308;-50
2024/04/13 10:24:22;;;;;;;10.25;3.30;;;;;;;;;;7325168;19;20297;-48
2024/04/13 10:26:47;;;;;;;8.67;3.30;;;;;;;;;;7346855;19;20295;-47
2024/04/13 10:29:22;;;;;;;8.45;3.30;;;;;;;;;;7344489;19;20368;-51
2024/04/13 10:31:47;;;;;;;10.52;3.08;;;;;;;;;;7326585;19;20321;-46
2024/04/13 10:34:14;;;;;;;11.43;2.70;;;;;;;;;;7349544;19;20328;-51
2024/04/13 10:36:40;;;;;;;10.35;3.70;;;;;;;;;;7326429;19;20296;-48
2024/04/13 10:39:07;;;;;;;8.52;2.55;;;;;;;;;;7344799;19;20778;-48
2024/04/13 10:41:33;;;;;;;6.03;2.35;;;;;;;;;;7321526;19;20335;-47
2024/04/13 10:43:59;;;;;;;11.10;3.60;;;;;;;;;;7346238;19;20313;-52
2024/04/13 10:46:25;;;;;;;7.68;2.60;;;;;;;;;;7323200;19;20329;-53
2024/04/13 10:48:52;;;;;;;8.47;2.70;;;;;;;;;;7346350;19;20321;-46
2024/04/13 10:51:17;;;;;;;8.07;3.35;;;;;;;;;;7335441;19;20313;-48
2024/04/13 10:53:43;;;;;;;9.43;3.20;;;;;;;;;;7337736;19;20328;-48
2024/04/13 10:56:09;;;;;;;11.10;3.40;;;;;;;;;;7346248;19;20305;-53
2024/04/13 10:58:35;;;;;;;10.38;3.25;;;;;;;;;;7322909;19;20300;-49
2024/04/13 11:01:01;;;;;;;7.97;3.20;;;;;;;;;;7345888;19;20836;-47
2024/04/13 11:03:29;;;;;;;8.30;2.80;;;;;;;;;;7323462;19;20384;-46
2024/04/13 11:05:55;;;;;;;8.50;2.30;;;;;;;;;;7345110;19;20360;-46
2024/04/13 11:08:23;;;;;;;7.93;2.75;;;;;;;;;;7325369;19;20320;-47
2024/04/13 11:10:52;;;;;;;7.53;2.60;;;;;;;;;;7345500;19;20292;-49
2024/04/13 11:13:18;;;;;;;7.65;2.58;;;;;;;;;;7334196;19;20328;-50
2024/04/13 11:15:43;;;;;;;6.72;2.38;;;;;;;;;;7345026;19;20293;-50
2024/04/13 11:18:09;;;;;;;7.23;2.80;;;;;;;;;;7345978;19;20343;-47
2024/04/13 11:20:35;;;;;;;6.60;2.90;;;;;;;;;;7323257;19;20350;-49
2024/04/13 11:23:01;;;;;;;9.38;3.17;;;;;;;;;;7344828;19;20301;-46
2024/04/13 11:25:27;;;;;;;8.47;2.90;;;;;;;;;;7324294;19;20852;-51
2024/04/13 11:27:52;;;;;;;6.93;2.83;;;;;;;;;;7343848;19;20883;-53
2024/04/13 11:30:18;;;;;;;8.27;3.27;;;;;;;;;;7333152;19;20317;-49
2024/04/13 11:32:44;;;;;;;7.13;2.80;;;;;;;;;;7345701;19;20301;-51
2024/04/13 11:35:18;;;;;;;7.93;2.80;;;;;;;;;;7346237;19;20304;-47
2024/04/13 11:37:59;;;;;;;8.48;2.92;;;;;;;;;;7324256;19;20293;-48
2024/04/13 11:40:29;;;;;;;6.78;2.90;;;;;;;;;;7321851;19;20336;-50
2024/04/13 11:42:54;;;;;;;8.90;3.20;;;;;;;;;;7345541;19;20301;-47
2024/04/13 11:45:20;;;;;;;8.50;3.10;;;;;;;;;;7323317;19;20788;-52
2024/04/13 11:47:46;;;;;;;6.93;3.40;;;;;;;;;;7345021;19;20297;-46
2024/04/13 11:50:11;;;;;;;8.43;3.90;;;;;;;;;;7344935;19;20296;-49
2024/04/13 11:52:37;;;;;;;8.43;3.15;;;;;;;;;;7322177;19;20389;-49
2024/04/13 11:55:03;;;;;;;7.13;2.83;;;;;;;;;;7344726;19;20331;-53
2024/04/13 11:57:28;;;;;;;6.97;2.90;;;;;;;;;;7322658;19;20706;-50
2024/04/13 11:59:53;;;;;;;8.40;2.90;;;;;;;;;;7343913;19;20312;-50
2024/04/13 12:02:20;;;;;;;5.00;2.40;;;;;;;;;;7323269;19;20320;-46
2024/04/13 12:04:45;;;;;;;8.05;2.70;;;;;;;;;;7344907;19;20312;-48
2024/04/13 12:07:12;;;;;;;6.77;2.80;;;;;;;;;;7345926;19;20368;-52
2024/04/13 12:09:41;;;;;;;5.82;2.40;;;;;;;;;;7322497;19;20278;-48
2024/04/13 12:12:06;;;;;;;6.07;2.80;;;;;;;;;;7345707;19;20677;-54
2024/04/13 12:14:32;;;;;;;7.47;2.80;;;;;;;;;;7321745;19;20337;-47
2024/04/13 12:16:58;;;;;;;7.45;2.40;;;;;;;;;;7344666;19;20297;-47
2024/04/13 12:19:23;;;;;;;6.80;2.50;;;;;;;;;;7321017;19;20328;-47
2024/04/13 12:21:49;;;;;;;6.60;2.60;;;;;;;;;;7342904;19;20296;-49
2024/04/13 12:24:14;;;;;;;5.95;2.20;;;;;;;;;;7345428;19;20321;-48
2024/04/13 12:26:40;;;;;;;6.53;2.70;;;;;;;;;;7321715;19;20297;-51
2024/04/13 12:29:05;;;;;;;6.97;2.57;;;;;;;;;;7342752;19;20325;-50
2024/04/13 12:31:30;;;;;;;5.67;2.40;;;;;;;;;;7323442;19;20332;-48
2024/04/13 12:33:56;;;;;;;7.80;2.10;;;;;;;;;;7344638;19;20331;-48
2024/04/13 12:36:21;;;;;;;7.93;2.10;;;;;;;;;;7322038;19;20401;-50
2024/04/13 12:38:47;;;;;;;7.10;2.20;;;;;;;;;;7341959;19;20364;-50
2024/04/13 12:41:13;;;;;;;5.13;2.00;;;;;;;;;;7343025;19;20314;-51
2024/04/13 12:43:39;;;;;;;7.03;2.40;;;;;;;;;;7322056;19;20657;-49
2024/04/13 12:46:04;;;;;;;5.93;2.30;;;;;;;;;;7344019;19;20396;-50
2024/04/13 12:48:30;;;;;;;5.77;2.20;;;;;;;;;;7320658;19;20317;-52
2024/04/13 12:50:55;;;;;;;8.98;2.00;;;;;;;;;;7343838;19;20392;-52
2024/04/13 12:53:21;;;;;;;7.87;2.10;;;;;;;;;;7318207;19;20324;-54
2024/04/13 12:55:46;;;;;;;6.63;2.80;;;;;;;;;;7342954;19;20768;-51
2024/04/13 12:58:13;;;;;;;6.10;2.40;;;;;;;;;;7343120;19;20382;-50
2024/04/13 13:00:38;;;;;;;5.85;2.10;;;;;;;;;;7321376;19;20415;-51
2024/04/13 13:03:04;;;;;;;5.50;2.43;;;;;;;;;;7342619;19;20300;-55
2024/04/13 13:05:29;;;;;;;7.35;2.08;;;;;;;;;;7319453;19;20316;-51
2024/04/13 13:07:55;;;;;;;7.07;2.10;;;;;;;;;;7344424;19;20317;-55
2024/04/13 13:10:20;;;;;;;5.60;2.00;;;;;;;;;;7319401;19;20313;-47
2024/04/13 13:12:45;;;;;;;5.23;2.00;;;;;;;;;;7343263;19;20326;-47
2024/04/13 13:15:11;;;;;;;7.80;2.30;;;;;;;;;;7342554;19;20328;-51
2024/04/13 13:17:36;;;;;;;7.50;2.10;;;;;;;;;;7320719;19;20835;-47
2024/04/13 13:20:03;;;;;;;5.90;1.73;;;;;;;;;;7341981;19;20292;-48
2024/04/13 13:22:28;;;;;;;4.43;1.87;;;;;;;;;;7320041;19;20321;-51
2024/04/13 13:24:53;;;;;;;6.57;2.42;;;;;;;;;;7343002;19;20873;-49
2024/04/13 13:27:19;;;;;;;7.13;2.20;;;;;;;;;;7318796;19;20333;-47
2024/04/13 13:29:44;;;;;;;5.67;2.20;;;;;;;;;;7341947;19;20297;-46
2024/04/13 13:32:10;;;;;;;4.80;2.00;;;;;;;;;;7341719;19;20292;-50
2024/04/13 13:34:35;;;;;;;7.30;2.25;;;;;;;;;;7320834;19;20331;-53
2024/04/13 13:37:01;;;;;;;5.30;1.87;;;;;;;;;;7341860;19;20309;-48
2024/04/13 13:39:26;;;;;;;6.13;2.00;;;;;;;;;;7318219;19;20333;-50
2024/04/13 13:41:52;;;;;;;8.00;2.20;;;;;;;;;;7342360;19;20321;-51
2024/04/13 13:44:17;;;;;;;6.32;2.17;;;;;;;;;;7335525;19;20328;-49
2024/04/13 13:46:43;;;;;;;6.90;2.30;;;;;;;;;;7330725;19;20309;-51
2024/04/13 13:49:08;;;;;;;5.57;1.93;;;;;;;;;;7341106;19;20388;-48
2024/04/13 13:51:35;;;;;;;7.30;2.08;;;;;;;;;;7316876;19;20317;-52
2024/04/13 13:54:00;;;;;;;5.35;1.90;;;;;;;;;;7340990;19;20301;-52
2024/04/13 13:56:26;;;;;;;4.40;1.90;;;;;;;;;;7318359;19;20347;-52
2024/04/13 13:58:51;;;;;;;6.95;2.20;;;;;;;;;;7338481;19;20400;-50
2024/04/13 14:01:17;;;;;;;5.45;2.10;;;;;;;;;;7343212;19;20440;-49
2024/04/13 14:03:43;;;;;;;6.57;2.10;;;;;;;;;;7324426;19;20297;-51
2024/04/13 14:06:08;;;;;;;6.10;2.17;;;;;;;;;;7347682;19;20502;-50
2024/04/13 14:08:34;;;;;;;7.97;2.78;;;;;;;;;;7326154;19;20309;-47
2024/04/13 14:10:59;;;;;;;12.47;4.90;;;;;;;;;;7347699;19;20309;-47
2024/04/13 14:13:25;;;;;;;20.60;9.53;;;;;;;;;;7324929;19;20380;-47
2024/04/13 14:15:51;;;;;;;19.37;7.50;;;;;;;;;;7348710;19;20329;-48
2024/04/13 14:18:16;;;;;;;18.23;7.43;;;;;;;;;;7346394;19;20497;-50
2024/04/13 14:20:41;;;;;;;11.43;5.27;;;;;;;;;;7325094;19;20392;-46
2024/04/13 14:23:07;;;;;;;22.08;8.82;;;;;;;;;;7347342;19;20293;-52
2024/04/13 14:25:32;;;;;;;16.00;7.37;;;;;;;;;;7324586;19;20317;-49